createdAt,value
2023-04-22T00:00:39.594Z, 33.62
2023-04-22T00:01:39.564Z, 33.64
2023-04-22T00:02:39.725Z, 33.62
2023-04-22T00:03:39.718Z, 33.60
2023-04-22T00:04:39.786Z, 33.63
2023-04-22T00:05:39.719Z, 33.62
2023-04-22T00:06:39.590Z, 33.61
2023-04-22T00:07:39.596Z, 33.57
2023-04-22T00:08:39.590Z, 33.56
2023-04-22T00:09:40.116Z, 33.59
2023-04-22T00:10:39.632Z, 33.56
2023-04-22T00:11:39.736Z, 33.56
2023-04-22T00:12:39.694Z, 33.53
2023-04-22T00:13:39.694Z, 33.56
2023-04-22T00:14:39.728Z, 33.56
2023-04-22T00:15:39.720Z, 33.56
2023-04-22T00:16:39.731Z, 33.56
2023-04-22T00:17:39.761Z, 33.55
2023-04-22T00:18:39.738Z, 33.49
2023-04-22T00:19:40.209Z, 33.50
2023-04-22T00:20:39.744Z, 33.49
2023-04-22T00:21:39.759Z, 33.50
2023-04-22T00:22:39.794Z, 33.50
2023-04-22T00:23:39.812Z, 33.49
2023-04-22T00:24:39.808Z, 33.49
2023-04-22T00:25:39.908Z, 33.48
2023-04-22T00:26:39.864Z, 33.51
2023-04-22T00:27:39.898Z, 33.45
2023-04-22T00:28:39.876Z, 33.43
2023-04-22T00:29:40.256Z, 33.43
2023-04-22T00:30:39.885Z, 33.45
2023-04-22T00:31:39.916Z, 33.43
2023-04-22T00:32:39.925Z, 33.41
2023-04-22T00:33:39.914Z, 33.41
2023-04-22T00:34:39.921Z, 33.38
2023-04-22T00:35:39.948Z, 33.37
2023-04-22T00:36:40.017Z, 33.37
2023-04-22T00:37:39.998Z, 33.35
2023-04-22T00:38:39.995Z, 33.32
2023-04-22T00:39:40.233Z, 33.31
2023-04-22T00:40:40.021Z, 33.31
2023-04-22T00:41:40.039Z, 33.30
2023-04-22T00:42:40.028Z, 33.32
2023-04-22T00:43:40.029Z, 33.35
2023-04-22T00:44:40.055Z, 33.31
2023-04-22T00:45:40.057Z, 33.29
2023-04-22T00:46:40.176Z, 33.27
2023-04-22T00:47:40.167Z, 33.27
2023-04-22T00:48:40.113Z, 33.25
2023-04-22T00:49:40.453Z, 33.25
2023-04-22T00:50:40.117Z, 33.25
2023-04-22T00:51:40.135Z, 33.27
2023-04-22T00:52:40.141Z, 33.24
2023-04-22T00:53:40.148Z, 33.22
2023-04-22T00:54:40.145Z, 33.21
2023-04-22T00:55:40.242Z, 33.19
2023-04-22T00:56:40.209Z, 33.19
2023-04-22T00:57:40.302Z, 33.17
2023-04-22T00:58:40.263Z, 33.13
2023-04-22T00:59:40.585Z, 33.12
2023-04-22T01:00:40.388Z, 33.12
2023-04-22T01:01:40.253Z, 33.09
2023-04-22T01:02:40.486Z, 33.10
2023-04-22T01:03:40.608Z, 33.12
2023-04-22T01:04:40.361Z, 33.12
2023-04-22T01:05:40.338Z, 33.15
2023-04-22T01:06:40.379Z, 33.13
2023-04-22T01:07:40.339Z, 33.11
2023-04-22T01:08:40.420Z, 33.08
2023-04-22T01:09:40.749Z, 33.07
2023-04-22T01:10:40.420Z, 33.05
2023-04-22T01:11:40.405Z, 33.03
2023-04-22T01:12:40.428Z, 33.01
2023-04-22T01:13:40.427Z, 33.00
2023-04-22T01:14:40.414Z, 32.98
2023-04-22T01:15:40.424Z, 32.99
2023-04-22T01:16:40.466Z, 33.00
2023-04-22T01:17:40.516Z, 32.96
2023-04-22T01:18:40.462Z, 32.95
2023-04-22T01:19:40.832Z, 32.97
2023-04-22T01:20:40.521Z, 32.98
2023-04-22T01:21:40.521Z, 32.97
2023-04-22T01:22:40.548Z, 32.93
2023-04-22T01:23:40.546Z, 32.94
2023-04-22T01:24:40.532Z, 32.94
2023-04-22T01:25:40.536Z, 32.95
2023-04-22T01:26:40.542Z, 32.94
2023-04-22T01:27:40.581Z, 32.93
2023-04-22T01:28:40.574Z, 32.94
2023-04-22T01:29:41.015Z, 32.94
2023-04-22T01:30:40.617Z, 32.92
2023-04-22T01:31:40.742Z, 32.93
2023-04-22T01:32:40.701Z, 32.92
2023-04-22T01:33:40.708Z, 32.93
2023-04-22T01:34:40.688Z, 32.90
2023-04-22T01:35:40.710Z, 32.86
2023-04-22T01:36:40.713Z, 32.81
2023-04-22T01:37:40.715Z, 32.83
2023-04-22T01:38:40.782Z, 32.83
2023-04-22T01:39:41.067Z, 32.84
2023-04-22T01:40:40.835Z, 32.84
2023-04-22T01:41:40.781Z, 32.82
2023-04-22T01:42:40.778Z, 32.82
2023-04-22T01:43:40.845Z, 32.80
2023-04-22T01:44:40.833Z, 32.84
2023-04-22T01:45:40.857Z, 32.79
2023-04-22T01:46:40.817Z, 32.80
2023-04-22T01:47:40.883Z, 32.79
2023-04-22T01:48:40.830Z, 32.77
2023-04-22T01:49:41.191Z, 32.76
2023-04-22T01:50:40.915Z, 32.76
2023-04-22T01:51:40.879Z, 32.73
2023-04-22T01:52:40.878Z, 32.70
2023-04-22T01:53:40.895Z, 32.70
2023-04-22T01:54:40.893Z, 32.72
2023-04-22T01:55:40.975Z, 32.72
2023-04-22T01:56:40.925Z, 32.72
2023-04-22T01:57:40.950Z, 32.73
2023-04-22T01:58:40.954Z, 32.71
2023-04-22T01:59:41.439Z, 32.74
2023-04-22T02:00:40.973Z, 32.76
2023-04-22T02:01:41.023Z, 32.72
2023-04-22T02:02:41.076Z, 32.65
2023-04-22T02:03:41.128Z, 32.65
2023-04-22T02:04:41.049Z, 32.68
2023-04-22T02:05:41.077Z, 32.65
2023-04-22T02:06:41.061Z, 32.64
2023-04-22T02:07:41.051Z, 32.65
2023-04-22T02:08:41.061Z, 32.64
2023-04-22T02:09:41.352Z, 32.62
2023-04-22T02:10:41.072Z, 32.61
2023-04-22T02:11:41.092Z, 32.59
2023-04-22T02:12:41.117Z, 32.60
2023-04-22T02:13:41.154Z, 32.56
2023-04-22T02:14:41.234Z, 32.55
2023-04-22T02:15:41.254Z, 32.52
2023-04-22T02:16:41.258Z, 32.55
2023-04-22T02:17:41.202Z, 32.53
2023-04-22T02:18:41.195Z, 32.54
2023-04-22T02:19:41.608Z, 32.55
2023-04-22T02:20:41.284Z, 32.55
2023-04-22T02:21:41.295Z, 32.52
2023-04-22T02:22:41.283Z, 32.48
2023-04-22T02:23:41.321Z, 32.50
2023-04-22T02:24:41.289Z, 32.49
2023-04-22T02:25:41.294Z, 32.49
2023-04-22T02:26:41.315Z, 32.52
2023-04-22T02:27:41.328Z, 32.52
2023-04-22T02:28:41.322Z, 32.46
2023-04-22T02:29:41.656Z, 32.47
2023-04-22T02:30:41.360Z, 32.48
2023-04-22T02:31:41.437Z, 32.46
2023-04-22T02:32:41.501Z, 32.45
2023-04-22T02:33:41.442Z, 32.41
2023-04-22T02:34:41.494Z, 32.41
2023-04-22T02:35:41.458Z, 32.43
2023-04-22T02:36:41.490Z, 32.40
2023-04-22T02:37:41.456Z, 32.40
2023-04-22T02:38:41.461Z, 32.38
2023-04-22T02:39:41.771Z, 32.37
2023-04-22T02:40:41.464Z, 32.38
2023-04-22T02:41:41.484Z, 32.35
2023-04-22T02:42:41.505Z, 32.38
2023-04-22T02:43:41.536Z, 32.40
2023-04-22T02:44:41.523Z, 32.38
2023-04-22T02:45:41.655Z, 32.38
2023-04-22T02:46:41.631Z, 32.38
2023-04-22T02:47:41.694Z, 32.34
2023-04-22T02:48:41.624Z, 32.33
2023-04-22T02:49:41.988Z, 32.35
2023-04-22T02:50:41.650Z, 32.34
2023-04-22T02:51:41.704Z, 32.33
2023-04-22T02:52:41.661Z, 32.34
2023-04-22T02:53:41.678Z, 32.32
2023-04-22T02:54:41.684Z, 32.31
2023-04-22T02:55:41.704Z, 32.33
2023-04-22T02:56:41.691Z, 32.28
2023-04-22T02:57:41.697Z, 32.27
2023-04-22T02:58:41.729Z, 32.28
2023-04-22T02:59:42.018Z, 32.31
2023-04-22T03:00:41.840Z, 32.30
2023-04-22T03:01:41.794Z, 32.27
2023-04-22T03:02:41.923Z, 32.28
2023-04-22T03:03:42.076Z, 32.24
2023-04-22T03:04:41.793Z, 32.19
2023-04-22T03:05:41.855Z, 32.20
2023-04-22T03:06:41.826Z, 32.20
2023-04-22T03:07:41.834Z, 32.18
2023-04-22T03:08:41.824Z, 32.19
2023-04-22T03:09:42.180Z, 32.20
2023-04-22T03:10:41.913Z, 32.18
2023-04-22T03:11:41.875Z, 32.17
2023-04-22T03:12:41.934Z, 32.15
2023-04-22T03:13:41.932Z, 32.17
2023-04-22T03:14:41.925Z, 32.18
2023-04-22T03:15:41.937Z, 32.13
2023-04-22T03:16:42.094Z, 32.13
2023-04-22T03:17:42.084Z, 32.14
2023-04-22T03:18:42.050Z, 32.16
2023-04-22T03:19:42.452Z, 32.12
2023-04-22T03:20:42.033Z, 32.12
2023-04-22T03:21:42.041Z, 32.16
2023-04-22T03:22:42.033Z, 32.13
2023-04-22T03:23:42.076Z, 32.07
2023-04-22T03:24:42.050Z, 32.07
2023-04-22T03:25:42.105Z, 32.07
2023-04-22T03:26:42.079Z, 32.04
2023-04-22T03:27:42.075Z, 32.01
2023-04-22T03:28:42.100Z, 32.03
2023-04-22T03:29:42.364Z, 32.02
2023-04-22T03:30:42.165Z, 32.02
2023-04-22T03:31:42.159Z, 32.64
2023-04-22T03:32:42.143Z, 34.47
2023-04-22T03:33:42.136Z, 36.46
2023-04-22T03:34:42.147Z, 37.58
2023-04-22T03:35:42.152Z, 38.45
2023-04-22T03:36:42.179Z, 39.20
2023-04-22T03:37:42.266Z, 39.69
2023-04-22T03:38:42.249Z, 40.16
2023-04-22T03:39:42.528Z, 40.62
2023-04-22T03:40:42.271Z, 40.99
2023-04-22T03:41:42.313Z, 41.25
2023-04-22T03:42:42.278Z, 41.51
2023-04-22T03:43:42.289Z, 41.83
2023-04-22T03:44:42.298Z, 42.10
2023-04-22T03:45:42.303Z, 42.34
2023-04-22T03:46:42.355Z, 42.63
2023-04-22T03:47:42.340Z, 42.86
2023-04-22T03:48:42.392Z, 43.05
2023-04-22T03:49:42.526Z, 43.25
2023-04-22T03:50:42.404Z, 43.40
2023-04-22T03:51:42.378Z, 43.48
2023-04-22T03:52:42.430Z, 43.61
2023-04-22T03:53:42.401Z, 43.75
2023-04-22T03:54:42.473Z, 43.80
2023-04-22T03:55:42.490Z, 43.90
2023-04-22T03:56:42.443Z, 43.96
2023-04-22T03:57:42.446Z, 43.98
2023-04-22T03:58:42.496Z, 44.02
2023-04-22T03:59:42.721Z, 44.03
2023-04-22T04:00:42.477Z, 44.05
2023-04-22T04:01:42.552Z, 43.89
2023-04-22T04:02:42.656Z, 44.44
2023-04-22T04:03:42.725Z, 46.34
2023-04-22T04:04:42.708Z, 49.20
2023-04-22T04:05:42.564Z, 52.90
2023-04-22T04:06:42.548Z, 57.01
2023-04-22T04:07:42.561Z, 62.89
2023-04-22T04:08:42.562Z, 66.11
2023-04-22T04:09:42.757Z, 55.32
2023-04-22T04:10:42.600Z, 53.98
2023-04-22T04:11:42.608Z, 55.25
2023-04-22T04:12:42.659Z, 57.18
2023-04-22T04:13:42.627Z, 60.84
2023-04-22T04:14:42.671Z, 68.91
2023-04-22T04:15:42.671Z, 59.24
2023-04-22T04:16:42.699Z, 55.34
2023-04-22T04:17:42.738Z, 55.45
2023-04-22T04:18:42.684Z, 57.03
2023-04-22T04:19:42.979Z, 58.21
2023-04-22T04:20:42.717Z, 59.15
2023-04-22T04:21:42.797Z, 60.51
2023-04-22T04:22:42.772Z, 62.68
2023-04-22T04:23:42.838Z, 63.14
2023-04-22T04:24:42.835Z, 62.96
2023-04-22T04:25:42.861Z, 62.78
2023-04-22T04:26:42.828Z, 62.60
2023-04-22T04:27:42.854Z, 62.38
2023-04-22T04:28:42.822Z, 62.18
2023-04-22T04:29:43.061Z, 61.98
2023-04-22T04:30:42.851Z, 61.65
2023-04-22T04:31:43.009Z, 61.36
2023-04-22T04:32:42.967Z, 61.13
2023-04-22T04:33:42.882Z, 60.87
2023-04-22T04:34:42.956Z, 60.64
2023-04-22T04:35:42.962Z, 60.37
2023-04-22T04:36:42.965Z, 60.12
2023-04-22T04:37:42.943Z, 59.90
2023-04-22T04:38:42.951Z, 59.66
2023-04-22T04:39:43.047Z, 59.45
2023-04-22T04:40:43.002Z, 59.21
2023-04-22T04:41:43.024Z, 59.01
2023-04-22T04:42:43.007Z, 58.81
2023-04-22T04:43:43.046Z, 58.64
2023-04-22T04:44:43.052Z, 58.41
2023-04-22T04:45:43.628Z, 58.23
2023-04-22T04:46:43.126Z, 58.00
2023-04-22T04:47:43.110Z, 57.83
2023-04-22T04:48:43.099Z, 57.67
2023-04-22T04:49:43.318Z, 57.48
2023-04-22T04:50:43.080Z, 57.29
2023-04-22T04:51:43.113Z, 57.17
2023-04-22T04:52:43.111Z, 57.01
2023-04-22T04:53:43.168Z, 56.80
2023-04-22T04:54:43.146Z, 56.63
2023-04-22T04:55:43.228Z, 56.51
2023-04-22T04:56:43.203Z, 56.38
2023-04-22T04:57:43.234Z, 56.25
2023-04-22T04:58:43.204Z, 56.05
2023-04-22T04:59:43.208Z, 55.90
2023-04-22T05:00:43.227Z, 55.76
2023-04-22T05:01:43.232Z, 55.63
2023-04-22T05:02:43.351Z, 55.46
2023-04-22T05:03:43.533Z, 55.24
2023-04-22T05:04:43.354Z, 54.99
2023-04-22T05:05:43.277Z, 54.76
2023-04-22T05:06:43.300Z, 54.53
2023-04-22T05:07:43.305Z, 54.33
2023-04-22T05:08:43.282Z, 54.04
2023-04-22T05:09:43.451Z, 53.80
2023-04-22T05:10:43.332Z, 53.56
2023-04-22T05:11:43.328Z, 53.31
2023-04-22T05:12:43.367Z, 53.08
2023-04-22T05:13:43.381Z, 52.86
2023-04-22T05:14:43.380Z, 52.62
2023-04-22T05:15:43.395Z, 52.40
2023-04-22T05:16:43.573Z, 52.10
2023-04-22T05:17:43.572Z, 51.82
2023-04-22T05:18:43.515Z, 51.70
2023-04-22T05:19:43.485Z, 51.51
2023-04-22T05:20:43.499Z, 51.15
2023-04-22T05:21:43.506Z, 50.80
2023-04-22T05:22:43.484Z, 50.52
2023-04-22T05:23:43.521Z, 50.31
2023-04-22T05:24:43.509Z, 50.12
2023-04-22T05:25:43.610Z, 49.91
2023-04-22T05:26:43.575Z, 49.76
2023-04-22T05:27:43.588Z, 49.58
2023-04-22T05:28:43.576Z, 49.45
2023-04-22T05:29:43.597Z, 49.29
2023-04-22T05:30:43.639Z, 49.11
2023-04-22T05:31:43.632Z, 49.02
2023-04-22T05:32:43.686Z, 48.98
2023-04-22T05:33:43.643Z, 48.85
2023-04-22T05:34:43.622Z, 48.72
2023-04-22T05:35:43.697Z, 48.61
2023-04-22T05:36:43.682Z, 48.51
2023-04-22T05:37:43.740Z, 48.39
2023-04-22T05:38:43.706Z, 48.32
2023-04-22T05:39:43.701Z, 48.23
2023-04-22T05:40:43.794Z, 48.13
2023-04-22T05:41:45.512Z, 48.01
2023-04-22T05:42:43.754Z, 47.93
2023-04-22T05:43:43.750Z, 47.89
2023-04-22T05:44:43.792Z, 47.81
2023-04-22T05:45:43.827Z, 47.70
2023-04-22T05:46:43.833Z, 47.72
2023-04-22T05:47:43.833Z, 47.61
2023-04-22T05:48:43.829Z, 47.48
2023-04-22T05:49:43.893Z, 47.46
2023-04-22T05:50:43.884Z, 47.37
2023-04-22T05:51:43.912Z, 47.25
2023-04-22T05:52:43.865Z, 47.19
2023-04-22T05:53:43.934Z, 47.11
2023-04-22T05:54:43.913Z, 47.04
2023-04-22T05:55:43.973Z, 47.00
2023-04-22T05:56:43.964Z, 47.01
2023-04-22T05:57:43.952Z, 46.96
2023-04-22T05:58:43.946Z, 46.88
2023-04-22T05:59:43.940Z, 46.76
2023-04-22T06:00:43.958Z, 46.82
2023-04-22T06:01:43.979Z, 46.73
2023-04-22T06:02:44.130Z, 46.64
2023-04-22T06:03:44.260Z, 46.62
2023-04-22T06:04:44.361Z, 46.59
2023-04-22T06:05:44.083Z, 46.52
2023-04-22T06:06:44.080Z, 46.48
2023-04-22T06:07:44.065Z, 46.41
2023-04-22T06:08:44.073Z, 46.44
2023-04-22T06:09:44.093Z, 46.34
2023-04-22T06:10:44.096Z, 46.29
2023-04-22T06:11:44.211Z, 46.28
2023-04-22T06:12:44.167Z, 46.19
2023-04-22T06:13:44.226Z, 46.17
2023-04-22T06:14:44.187Z, 46.18
2023-04-22T06:15:44.233Z, 46.08
2023-04-22T06:16:44.201Z, 46.05
2023-04-22T06:17:44.250Z, 46.05
2023-04-22T06:18:44.292Z, 46.05
2023-04-22T06:19:44.245Z, 46.00
2023-04-22T06:20:44.287Z, 45.93
2023-04-22T06:21:44.278Z, 45.91
2023-04-22T06:22:44.272Z, 45.90
2023-04-22T06:23:44.262Z, 45.92
2023-04-22T06:24:46.241Z, 45.84
2023-04-22T06:25:44.276Z, 45.81
2023-04-22T06:26:44.266Z, 45.77
2023-04-22T06:27:44.343Z, 45.71
2023-04-22T06:28:44.324Z, 45.65
2023-04-22T06:29:44.400Z, 45.61
2023-04-22T06:30:44.365Z, 45.60
2023-04-22T06:31:44.499Z, 45.54
2023-04-22T06:32:44.455Z, 45.51
2023-04-22T06:33:44.401Z, 45.42
2023-04-22T06:34:44.392Z, 45.50
2023-04-22T06:35:44.413Z, 45.48
2023-04-22T06:36:44.447Z, 45.46
2023-04-22T06:37:44.434Z, 45.40
2023-04-22T06:38:44.442Z, 45.38
2023-04-22T06:39:44.451Z, 45.37
2023-04-22T06:40:44.536Z, 45.34
2023-04-22T06:41:44.556Z, 45.26
2023-04-22T06:42:44.563Z, 45.22
2023-04-22T06:43:44.531Z, 45.20
2023-04-22T06:44:44.580Z, 45.19
2023-04-22T06:45:44.544Z, 45.19
2023-04-22T06:46:44.632Z, 45.19
2023-04-22T06:47:44.601Z, 45.18
2023-04-22T06:48:44.597Z, 45.14
2023-04-22T06:49:44.567Z, 45.05
2023-04-22T06:50:44.585Z, 45.05
2023-04-22T06:51:44.612Z, 45.00
2023-04-22T06:52:44.609Z, 44.95
2023-04-22T06:53:44.679Z, 45.00
2023-04-22T06:54:44.653Z, 44.95
2023-04-22T06:55:44.648Z, 44.94
2023-04-22T06:56:44.667Z, 44.91
2023-04-22T06:57:44.773Z, 44.86
2023-04-22T06:58:44.715Z, 44.92
2023-04-22T06:59:46.814Z, 44.84
2023-04-22T07:00:44.746Z, 44.75
2023-04-22T07:01:44.804Z, 44.75
2023-04-22T07:02:44.850Z, 44.70
2023-04-22T07:03:44.857Z, 44.68
2023-04-22T07:04:44.850Z, 44.69
2023-04-22T07:05:44.786Z, 44.68
2023-04-22T07:06:44.815Z, 44.69
2023-04-22T07:07:44.806Z, 44.70
2023-04-22T07:08:44.881Z, 44.69
2023-04-22T07:09:44.874Z, 44.66
2023-04-22T07:10:44.906Z, 44.60
2023-04-22T07:11:44.906Z, 44.59
2023-04-22T07:12:44.903Z, 44.57
2023-04-22T07:13:44.897Z, 44.56
2023-04-22T07:14:44.908Z, 44.54
2023-04-22T07:15:44.876Z, 44.49
2023-04-22T07:16:44.913Z, 44.43
2023-04-22T07:17:45.010Z, 44.42
2023-04-22T07:18:45.003Z, 44.44
2023-04-22T07:19:45.030Z, 44.41
2023-04-22T07:20:44.989Z, 44.35
2023-04-22T07:21:45.002Z, 44.37
2023-04-22T07:22:44.992Z, 44.37
2023-04-22T07:23:44.989Z, 44.32
2023-04-22T07:24:45.007Z, 44.33
2023-04-22T07:25:45.026Z, 44.31
2023-04-22T07:26:45.039Z, 44.31
2023-04-22T07:27:45.045Z, 44.25
2023-04-22T07:28:45.040Z, 44.22
2023-04-22T07:29:45.061Z, 44.21
2023-04-22T07:30:45.165Z, 44.15
2023-04-22T07:31:45.137Z, 44.16
2023-04-22T07:32:47.567Z, 44.11
2023-04-22T07:33:45.159Z, 44.10
2023-04-22T07:34:45.152Z, 44.11
2023-04-22T07:35:45.153Z, 44.01
2023-04-22T07:36:45.165Z, 44.07
2023-04-22T07:37:45.202Z, 44.05
2023-04-22T07:38:45.178Z, 44.02
2023-04-22T07:39:45.239Z, 44.05
2023-04-22T07:40:45.213Z, 43.96
2023-04-22T07:41:45.281Z, 43.88
2023-04-22T07:42:45.259Z, 43.91
2023-04-22T07:43:45.266Z, 43.91
2023-04-22T07:44:45.257Z, 43.86
2023-04-22T07:45:45.292Z, 43.84
2023-04-22T07:46:45.334Z, 43.89
2023-04-22T07:47:45.324Z, 43.86
2023-04-22T07:48:45.326Z, 43.79
2023-04-22T07:49:45.316Z, 43.84
2023-04-22T07:50:45.329Z, 43.75
2023-04-22T07:51:45.341Z, 43.77
2023-04-22T07:52:45.344Z, 43.77
2023-04-22T07:53:45.449Z, 43.79
2023-04-22T07:54:45.409Z, 43.72
2023-04-22T07:55:45.472Z, 43.69
2023-04-22T07:56:45.428Z, 43.72
2023-04-22T07:57:45.423Z, 43.63
2023-04-22T07:58:45.471Z, 43.63
2023-04-22T07:59:45.433Z, 43.65
2023-04-22T08:00:45.459Z, 43.62
2023-04-22T08:01:45.444Z, 43.60
2023-04-22T08:02:45.582Z, 43.55
2023-04-22T08:03:45.714Z, 43.57
2023-04-22T08:04:45.643Z, 43.58
2023-04-22T08:05:45.555Z, 43.46
2023-04-22T08:06:45.569Z, 43.44
2023-04-22T08:07:45.564Z, 43.49
2023-04-22T08:08:45.549Z, 43.42
2023-04-22T08:09:45.569Z, 43.43
2023-04-22T08:10:45.631Z, 43.41
2023-04-22T08:11:45.640Z, 43.39
2023-04-22T08:12:45.611Z, 43.34
2023-04-22T08:13:45.690Z, 43.30
2023-04-22T08:14:45.669Z, 43.19
2023-04-22T08:15:45.679Z, 43.18
2023-04-22T08:16:45.700Z, 43.19
2023-04-22T08:17:45.698Z, 43.12
2023-04-22T08:18:45.754Z, 43.17
2023-04-22T08:19:45.721Z, 43.12
2023-04-22T08:20:45.760Z, 43.20
2023-04-22T08:21:45.800Z, 43.24
2023-04-22T08:22:45.813Z, 43.18
2023-04-22T08:23:45.780Z, 43.13
2023-04-22T08:24:45.813Z, 43.05
2023-04-22T08:25:45.790Z, 43.11
2023-04-22T08:26:45.784Z, 43.14
2023-04-22T08:27:45.798Z, 43.05
2023-04-22T08:28:45.785Z, 43.07
2023-04-22T08:29:45.859Z, 43.06
2023-04-22T08:30:45.852Z, 43.03
2023-04-22T08:31:45.955Z, 43.11
2023-04-22T08:32:45.924Z, 43.03
2023-04-22T08:33:45.866Z, 42.94
2023-04-22T08:34:46.641Z, 42.92
2023-04-22T08:35:45.881Z, 42.91
2023-04-22T08:36:45.971Z, 42.88
2023-04-22T08:37:45.948Z, 42.82
2023-04-22T08:38:47.786Z, 42.83
2023-04-22T08:39:46.000Z, 42.86
2023-04-22T08:40:45.985Z, 42.81
2023-04-22T08:41:45.988Z, 42.78
2023-04-22T08:42:45.973Z, 42.73
2023-04-22T08:43:45.993Z, 42.74
2023-04-22T08:44:46.005Z, 42.67
2023-04-22T08:45:46.015Z, 42.61
2023-04-22T08:46:46.131Z, 42.53
2023-04-22T08:47:46.143Z, 42.57
2023-04-22T08:48:46.121Z, 42.59
2023-04-22T08:49:46.113Z, 42.55
2023-04-22T08:50:46.105Z, 42.57
2023-04-22T08:51:46.162Z, 42.52
2023-04-22T08:52:46.112Z, 42.52
2023-04-22T08:53:46.166Z, 42.51
2023-04-22T08:54:46.191Z, 42.56
2023-04-22T08:55:46.176Z, 42.48
2023-04-22T08:56:46.169Z, 42.50
2023-04-22T08:57:46.161Z, 42.49
2023-04-22T08:58:46.167Z, 42.47
2023-04-22T08:59:46.191Z, 42.43
2023-04-22T09:00:46.259Z, 42.37
2023-04-22T09:01:46.262Z, 42.36
2023-04-22T09:02:46.307Z, 42.38
2023-04-22T09:03:46.344Z, 42.29
2023-04-22T09:04:46.329Z, 42.25
2023-04-22T09:05:46.287Z, 42.25
2023-04-22T09:06:46.333Z, 42.24
2023-04-22T09:07:46.313Z, 42.20
2023-04-22T09:08:46.326Z, 42.22
2023-04-22T09:09:46.338Z, 42.21
2023-04-22T09:10:46.322Z, 42.15
2023-04-22T09:11:46.393Z, 42.22
2023-04-22T09:12:46.366Z, 42.11
2023-04-22T09:13:46.367Z, 42.13
2023-04-22T09:14:46.375Z, 42.13
2023-04-22T09:15:46.407Z, 42.06
2023-04-22T09:16:46.469Z, 42.11
2023-04-22T09:17:46.444Z, 42.10
2023-04-22T09:18:46.503Z, 42.05
2023-04-22T09:19:46.489Z, 42.04
2023-04-22T09:20:46.527Z, 42.15
2023-04-22T09:21:49.108Z, 42.06
2023-04-22T09:22:46.464Z, 42.01
2023-04-22T09:23:46.481Z, 42.03
2023-04-22T09:24:46.475Z, 42.01
2023-04-22T09:25:46.518Z, 41.95
2023-04-22T09:26:46.513Z, 41.95
2023-04-22T09:27:48.035Z, 41.92
2023-04-22T09:28:46.548Z, 41.92
2023-04-22T09:29:46.558Z, 41.85
2023-04-22T09:30:46.561Z, 41.86
2023-04-22T09:31:46.605Z, 41.93
2023-04-22T09:32:46.745Z, 41.87
2023-04-22T09:33:48.339Z, 41.88
2023-04-22T09:34:46.701Z, 41.85
2023-04-22T09:35:46.701Z, 41.87
2023-04-22T09:36:46.760Z, 41.88
2023-04-22T09:37:49.675Z, 41.86
2023-04-22T09:38:46.671Z, 41.80
2023-04-22T09:39:48.667Z, 41.85
2023-04-22T09:40:46.699Z, 41.77
2023-04-22T09:41:46.784Z, 41.72
2023-04-22T09:42:46.759Z, 41.68
2023-04-22T09:43:46.799Z, 41.63
2023-04-22T09:44:46.765Z, 41.59
2023-04-22T09:45:46.807Z, 41.63
2023-04-22T09:46:46.766Z, 41.62
2023-04-22T09:47:46.829Z, 41.62
2023-04-22T09:48:46.794Z, 41.52
2023-04-22T09:49:46.786Z, 41.52
2023-04-22T09:50:46.855Z, 41.54
2023-04-22T09:51:47.662Z, 41.58
2023-04-22T09:52:46.881Z, 41.61
2023-04-22T09:53:46.856Z, 41.57
2023-04-22T09:54:46.860Z, 41.56
2023-04-22T09:55:46.923Z, 41.58
2023-04-22T09:56:46.892Z, 41.54
2023-04-22T09:57:46.919Z, 41.57
2023-04-22T09:58:46.918Z, 41.50
2023-04-22T09:59:46.931Z, 41.47
2023-04-22T10:00:46.946Z, 41.43
2023-04-22T10:01:47.041Z, 42.48
2023-04-22T10:02:47.040Z, 43.55
2023-04-22T10:03:46.999Z, 43.92
2023-04-22T10:04:46.987Z, 44.09
2023-04-22T10:05:46.992Z, 44.12
2023-04-22T10:06:47.030Z, 44.14
2023-04-22T10:07:47.053Z, 44.17
2023-04-22T10:08:47.036Z, 44.20
2023-04-22T10:09:47.019Z, 44.23
2023-04-22T10:10:47.117Z, 44.20
2023-04-22T10:11:47.392Z, 44.20
2023-04-22T10:12:47.131Z, 44.24
2023-04-22T10:13:47.116Z, 44.23
2023-04-22T10:14:47.111Z, 44.22
2023-04-22T10:15:47.122Z, 44.21
2023-04-22T10:16:47.225Z, 44.22
2023-04-22T10:17:47.188Z, 44.19
2023-04-22T10:18:47.212Z, 44.18
2023-04-22T10:19:47.190Z, 44.16
2023-04-22T10:20:47.245Z, 44.13
2023-04-22T10:21:47.221Z, 44.13
2023-04-22T10:22:47.225Z, 44.08
2023-04-22T10:23:47.208Z, 44.04
2023-04-22T10:24:47.217Z, 44.02
2023-04-22T10:25:47.296Z, 43.97
2023-04-22T10:26:47.275Z, 43.91
2023-04-22T10:27:47.319Z, 43.94
2023-04-22T10:28:47.284Z, 43.90
2023-04-22T10:29:47.315Z, 43.88
2023-04-22T10:30:47.340Z, 43.81
2023-04-22T10:31:47.326Z, 43.64
2023-04-22T10:32:47.595Z, 43.32
2023-04-22T10:33:47.320Z, 43.06
2023-04-22T10:34:47.329Z, 42.87
2023-04-22T10:35:47.371Z, 42.69
2023-04-22T10:36:47.375Z, 42.55
2023-04-22T10:37:47.355Z, 42.43
2023-04-22T10:38:47.377Z, 42.33
2023-04-22T10:39:47.379Z, 42.22
2023-04-22T10:40:47.475Z, 42.16
2023-04-22T10:41:47.439Z, 42.15
2023-04-22T10:42:47.497Z, 42.07
2023-04-22T10:43:47.512Z, 42.04
2023-04-22T10:44:47.490Z, 42.07
2023-04-22T10:45:47.480Z, 42.10
2023-04-22T10:46:47.489Z, 42.05
2023-04-22T10:47:47.960Z, 41.99
2023-04-22T10:48:47.552Z, 41.95
2023-04-22T10:49:47.557Z, 41.87
2023-04-22T10:50:47.548Z, 41.81
2023-04-22T10:51:47.580Z, 41.76
2023-04-22T10:52:47.657Z, 41.72
2023-04-22T10:53:47.608Z, 41.68
2023-04-22T10:54:47.610Z, 41.64
2023-04-22T10:55:47.622Z, 41.57
2023-04-22T10:56:51.921Z, 41.54
2023-04-22T10:57:47.658Z, 41.51
2023-04-22T10:58:47.720Z, 41.52
2023-04-22T10:59:48.902Z, 41.50
2023-04-22T11:01:47.765Z, 41.48
2023-04-22T11:02:47.830Z, 41.46
2023-04-22T11:03:47.770Z, 41.46
2023-04-22T11:04:47.715Z, 41.43
2023-04-22T11:05:47.744Z, 41.36
2023-04-22T11:06:47.736Z, 41.42
2023-04-22T11:07:47.851Z, 41.32
2023-04-22T11:08:47.832Z, 41.23
2023-04-22T11:09:47.837Z, 41.21
2023-04-22T11:10:47.798Z, 41.26
2023-04-22T11:11:47.835Z, 41.24
2023-04-22T11:12:47.816Z, 41.23
2023-04-22T11:13:47.850Z, 41.20
2023-04-22T11:14:47.923Z, 41.17
2023-04-22T11:15:47.941Z, 41.17
2023-04-22T11:16:47.973Z, 41.23
2023-04-22T11:17:47.990Z, 41.24
2023-04-22T11:18:47.964Z, 41.19
2023-04-22T11:19:47.929Z, 41.17
2023-04-22T11:20:47.926Z, 41.11
2023-04-22T11:21:49.022Z, 41.08
2023-04-22T11:22:47.974Z, 41.06
2023-04-22T11:23:48.028Z, 41.08
2023-04-22T11:24:48.016Z, 41.05
2023-04-22T11:25:48.076Z, 41.04
2023-04-22T11:26:48.055Z, 41.02
2023-04-22T11:27:48.078Z, 40.96
2023-04-22T11:28:48.068Z, 40.98
2023-04-22T11:29:48.046Z, 40.98
2023-04-22T11:30:48.087Z, 40.91
2023-04-22T11:31:48.086Z, 40.90
2023-04-22T11:32:48.125Z, 40.84
2023-04-22T11:33:49.796Z, 40.87
2023-04-22T11:34:48.149Z, 40.85
2023-04-22T11:35:48.126Z, 40.82
2023-04-22T11:36:48.199Z, 40.81
2023-04-22T11:37:48.191Z, 40.82
2023-04-22T11:38:48.222Z, 40.78
2023-04-22T11:40:13.184Z, 40.83
2023-04-22T11:40:48.911Z, 40.83
2023-04-22T11:41:48.195Z, 40.77
2023-04-22T11:42:48.195Z, 40.78
2023-04-22T11:43:48.275Z, 40.78
2023-04-22T11:44:48.225Z, 40.72
2023-04-22T11:45:48.279Z, 40.71
2023-04-22T11:46:48.248Z, 40.64
2023-04-22T11:47:48.310Z, 40.68
2023-04-22T11:48:48.271Z, 40.68
2023-04-22T11:49:48.342Z, 40.64
2023-04-22T11:50:48.327Z, 40.65
2023-04-22T11:51:48.387Z, 40.62
2023-04-22T11:52:48.363Z, 40.59
2023-04-22T11:53:48.381Z, 40.58
2023-04-22T11:54:48.372Z, 40.59
2023-04-22T11:55:48.393Z, 40.55
2023-04-22T11:56:48.357Z, 40.54
2023-04-22T11:57:48.448Z, 40.53
2023-04-22T11:58:48.382Z, 40.50
2023-04-22T11:59:48.460Z, 40.49
2023-04-22T12:00:48.442Z, 40.51
2023-04-22T12:01:48.524Z, 40.49
2023-04-22T12:02:48.512Z, 40.46
2023-04-22T12:03:48.589Z, 40.38
2023-04-22T12:04:48.490Z, 40.41
2023-04-22T12:05:48.513Z, 40.37
2023-04-22T12:06:48.509Z, 40.36
2023-04-22T12:07:48.505Z, 40.32
2023-04-22T12:08:48.525Z, 40.36
2023-04-22T12:09:48.537Z, 40.40
2023-04-22T12:10:48.620Z, 40.37
2023-04-22T12:11:48.593Z, 40.36
2023-04-22T12:12:48.642Z, 40.35
2023-04-22T12:13:48.602Z, 40.36
2023-04-22T12:14:48.615Z, 40.33
2023-04-22T12:15:48.617Z, 40.29
2023-04-22T12:16:48.682Z, 40.26
2023-04-22T12:17:48.647Z, 40.25
2023-04-22T12:18:48.633Z, 40.20
2023-04-22T12:19:48.704Z, 40.20
2023-04-22T12:20:48.688Z, 40.20
2023-04-22T12:21:48.678Z, 40.18
2023-04-22T12:22:48.682Z, 40.16
2023-04-22T12:23:48.677Z, 40.14
2023-04-22T12:24:48.701Z, 40.09
2023-04-22T12:25:48.710Z, 40.05
2023-04-22T12:26:48.784Z, 40.13
2023-04-22T12:27:48.765Z, 40.15
2023-04-22T12:28:48.809Z, 40.18
2023-04-22T12:29:48.791Z, 40.14